METAR Data
IDs: Format: Raw Decoded Include TAF

Data at: 0127 UTC 01 Mar 2021

KIJX 010115Z AUTO 32014G18KT 10SM CLR 04/01 A2998 RMK AO2 T00390010